sensor_id;sensor_type;location;lat;lon;timestamp;temperature;humidity
9323;DHT22;4700;48.822;9.270;2022-11-02T00:00:12;10.30;1.00
9323;DHT22;4700;48.822;9.270;2022-11-02T00:03:00;10.30;1.00
9323;DHT22;4700;48.822;9.270;2022-11-02T00:05:46;10.30;1.00
9323;DHT22;4700;48.822;9.270;2022-11-02T00:08:33;10.20;1.00
9323;DHT22;4700;48.822;9.270;2022-11-02T00:11:19;10.10;1.00
9323;DHT22;4700;48.822;9.270;2022-11-02T00:14:05;10.10;1.00
9323;DHT22;4700;48.822;9.270;2022-11-02T00:16:51;10.00;1.00
9323;DHT22;4700;48.822;9.270;2022-11-02T00:19:37;9.90;1.00
9323;DHT22;4700;48.822;9.270;2022-11-02T00:22:23;9.70;1.00
9323;DHT22;4700;48.822;9.270;2022-11-02T00:25:13;9.60;1.00
9323;DHT22;4700;48.822;9.270;2022-11-02T00:28:01;9.50;1.00
9323;DHT22;4700;48.822;9.270;2022-11-02T00:30:47;9.30;1.00
9323;DHT22;4700;48.822;9.270;2022-11-02T00:33:33;9.20;1.00
9323;DHT22;4700;48.822;9.270;2022-11-02T00:36:20;9.00;1.00
9323;DHT22;4700;48.822;9.270;2022-11-02T00:39:08;8.90;1.00
9323;DHT22;4700;48.822;9.270;2022-11-02T00:41:55;8.80;1.00
9323;DHT22;4700;48.822;9.270;2022-11-02T00:44:41;8.70;1.00
9323;DHT22;4700;48.822;9.270;2022-11-02T00:47:28;8.60;1.00
9323;DHT22;4700;48.822;9.270;2022-11-02T00:50:14;8.50;1.00
9323;DHT22;4700;48.822;9.270;2022-11-02T00:53:00;8.40;1.00
9323;DHT22;4700;48.822;9.270;2022-11-02T00:55:48;8.40;1.00
9323;DHT22;4700;48.822;9.270;2022-11-02T00:58:35;8.30;1.00
9323;DHT22;4700;48.822;9.270;2022-11-02T01:01:20;8.30;1.00
9323;DHT22;4700;48.822;9.270;2022-11-02T01:04:06;8.30;1.00
9323;DHT22;4700;48.822;9.270;2022-11-02T01:06:52;8.20;1.00
9323;DHT22;4700;48.822;9.270;2022-11-02T01:09:39;8.20;1.00
9323;DHT22;4700;48.822;9.270;2022-11-02T01:12:25;8.20;1.00
9323;DHT22;4700;48.822;9.270;2022-11-02T01:15:13;8.10;1.00
9323;DHT22;4700;48.822;9.270;2022-11-02T01:17:59;8.20;1.00
9323;DHT22;4700;48.822;9.270;2022-11-02T01:20:45;8.10;1.00
9323;DHT22;4700;48.822;9.270;2022-11-02T01:23:31;8.10;1.00
9323;DHT22;4700;48.822;9.270;2022-11-02T01:26:18;8.10;1.00
9323;DHT22;4700;48.822;9.270;2022-11-02T01:29:04;8.30;1.00
9323;DHT22;4700;48.822;9.270;2022-11-02T01:31:51;8.50;1.00
9323;DHT22;4700;48.822;9.270;2022-11-02T01:34:38;8.80;1.00
9323;DHT22;4700;48.822;9.270;2022-11-02T01:37:24;9.10;1.00
9323;DHT22;4700;48.822;9.270;2022-11-02T01:40:13;9.30;1.00
9323;DHT22;4700;48.822;9.270;2022-11-02T01:42:59;9.50;1.00
9323;DHT22;4700;48.822;9.270;2022-11-02T01:45:45;9.60;1.00
9323;DHT22;4700;48.822;9.270;2022-11-02T01:48:34;9.80;1.00
9323;DHT22;4700;48.822;9.270;2022-11-02T01:51:24;9.90;1.00
9323;DHT22;4700;48.822;9.270;2022-11-02T01:54:13;9.90;1.00
9323;DHT22;4700;48.822;9.270;2022-11-02T01:57:03;10.00;1.00
9323;DHT22;4700;48.822;9.270;2022-11-02T01:59:53;10.00;1.00
9323;DHT22;4700;48.822;9.270;2022-11-02T02:02:44;10.10;1.00
9323;DHT22;4700;48.822;9.270;2022-11-02T02:05:37;10.20;1.00
9323;DHT22;4700;48.822;9.270;2022-11-02T02:08:24;10.20;1.00
9323;DHT22;4700;48.822;9.270;2022-11-02T02:11:25;10.20;1.00
9323;DHT22;4700;48.822;9.270;2022-11-02T02:14:13;10.30;1.00
9323;DHT22;4700;48.822;9.270;2022-11-02T02:17:11;10.30;1.00
9323;DHT22;4700;48.822;9.270;2022-11-02T02:20:06;10.30;1.00
9323;DHT22;4700;48.822;9.270;2022-11-02T02:23:41;10.30;1.00
9323;DHT22;4700;48.822;9.270;2022-11-02T02:26:46;10.20;1.00
9323;DHT22;4700;48.822;9.270;2022-11-02T02:29:49;10.20;1.00
9323;DHT22;4700;48.822;9.270;2022-11-02T02:32:46;10.20;1.00
9323;DHT22;4700;48.822;9.270;2022-11-02T02:35:38;10.20;1.00
9323;DHT22;4700;48.822;9.270;2022-11-02T02:38:29;10.20;1.00
9323;DHT22;4700;48.822;9.270;2022-11-02T02:41:22;10.20;1.00
9323;DHT22;4700;48.822;9.270;2022-11-02T02:44:11;10.20;1.00
9323;DHT22;4700;48.822;9.270;2022-11-02T02:47:03;10.20;1.00
9323;DHT22;4700;48.822;9.270;2022-11-02T02:49:52;10.30;1.00
9323;DHT22;4700;48.822;9.270;2022-11-02T02:52:39;10.30;1.00
9323;DHT22;4700;48.822;9.270;2022-11-02T02:55:30;10.30;1.00
9323;DHT22;4700;48.822;9.270;2022-11-02T02:58:20;10.30;1.00
9323;DHT22;4700;48.822;9.270;2022-11-02T03:01:11;10.20;1.00
9323;DHT22;4700;48.822;9.270;2022-11-02T03:03:58;10.30;1.00
9323;DHT22;4700;48.822;9.270;2022-11-02T03:06:47;10.30;1.00
9323;DHT22;4700;48.822;9.270;2022-11-02T03:09:38;10.30;1.00
9323;DHT22;4700;48.822;9.270;2022-11-02T03:12:35;10.30;1.00
9323;DHT22;4700;48.822;9.270;2022-11-02T03:15:25;10.10;1.00
9323;DHT22;4700;48.822;9.270;2022-11-02T03:18:18;10.40;1.00
9323;DHT22;4700;48.822;9.270;2022-11-02T03:21:16;10.40;1.00
9323;DHT22;4700;48.822;9.270;2022-11-02T03:24:08;10.40;1.00
9323;DHT22;4700;48.822;9.270;2022-11-02T03:27:05;10.40;1.00
9323;DHT22;4700;48.822;9.270;2022-11-02T03:29:56;10.50;1.00
9323;DHT22;4700;48.822;9.270;2022-11-02T03:32:49;10.50;1.00
9323;DHT22;4700;48.822;9.270;2022-11-02T03:35:42;10.50;1.00
9323;DHT22;4700;48.822;9.270;2022-11-02T03:38:37;10.50;1.00
9323;DHT22;4700;48.822;9.270;2022-11-02T03:41:26;10.60;1.00
9323;DHT22;4700;48.822;9.270;2022-11-02T03:44:18;10.60;1.00
9323;DHT22;4700;48.822;9.270;2022-11-02T03:47:08;10.60;1.00
9323;DHT22;4700;48.822;9.270;2022-11-02T03:49:56;10.60;1.00
9323;DHT22;4700;48.822;9.270;2022-11-02T03:52:44;10.60;1.00
9323;DHT22;4700;48.822;9.270;2022-11-02T03:55:35;10.60;1.00
9323;DHT22;4700;48.822;9.270;2022-11-02T03:58:22;10.60;1.00
9323;DHT22;4700;48.822;9.270;2022-11-02T04:01:08;10.60;1.00
9323;DHT22;4700;48.822;9.270;2022-11-02T04:03:54;10.60;1.00
9323;DHT22;4700;48.822;9.270;2022-11-02T04:06:41;10.70;1.00
9323;DHT22;4700;48.822;9.270;2022-11-02T04:09:27;10.70;1.00
9323;DHT22;4700;48.822;9.270;2022-11-02T04:12:14;10.70;1.00
9323;DHT22;4700;48.822;9.270;2022-11-02T04:15:17;10.70;1.00
9323;DHT22;4700;48.822;9.270;2022-11-02T04:18:03;10.70;1.00
9323;DHT22;4700;48.822;9.270;2022-11-02T04:21:06;10.70;1.00
9323;DHT22;4700;48.822;9.270;2022-11-02T04:23:52;10.70;1.00
9323;DHT22;4700;48.822;9.270;2022-11-02T04:26:55;10.70;1.00
9323;DHT22;4700;48.822;9.270;2022-11-02T04:29:43;10.70;1.00
9323;DHT22;4700;48.822;9.270;2022-11-02T04:32:29;10.70;1.00
9323;DHT22;4700;48.822;9.270;2022-11-02T04:35:34;10.60;1.00
9323;DHT22;4700;48.822;9.270;2022-11-02T04:38:20;10.70;1.00
9323;DHT22;4700;48.822;9.270;2022-11-02T04:41:24;10.70;1.00
9323;DHT22;4700;48.822;9.270;2022-11-02T04:44:29;10.60;1.00
9323;DHT22;4700;48.822;9.270;2022-11-02T04:47:16;10.60;1.00
9323;DHT22;4700;48.822;9.270;2022-11-02T04:50:02;10.50;1.00
9323;DHT22;4700;48.822;9.270;2022-11-02T04:52:54;10.40;1.00
9323;DHT22;4700;48.822;9.270;2022-11-02T04:55:40;10.40;1.00
9323;DHT22;4700;48.822;9.270;2022-11-02T04:58:26;10.30;1.00
9323;DHT22;4700;48.822;9.270;2022-11-02T05:01:13;10.30;1.00
9323;DHT22;4700;48.822;9.270;2022-11-02T05:04:01;10.20;1.00
9323;DHT22;4700;48.822;9.270;2022-11-02T05:06:47;10.20;1.00
9323;DHT22;4700;48.822;9.270;2022-11-02T05:09:32;10.10;1.00
9323;DHT22;4700;48.822;9.270;2022-11-02T05:12:18;10.10;1.00
9323;DHT22;4700;48.822;9.270;2022-11-02T05:15:04;10.10;1.00
9323;DHT22;4700;48.822;9.270;2022-11-02T05:17:51;10.10;1.00
9323;DHT22;4700;48.822;9.270;2022-11-02T05:20:38;10.00;1.00
9323;DHT22;4700;48.822;9.270;2022-11-02T05:23:24;10.00;1.00
9323;DHT22;4700;48.822;9.270;2022-11-02T05:26:11;10.00;1.00
9323;DHT22;4700;48.822;9.270;2022-11-02T05:28:57;10.00;1.00
9323;DHT22;4700;48.822;9.270;2022-11-02T05:31:43;10.00;1.00
9323;DHT22;4700;48.822;9.270;2022-11-02T05:34:29;10.00;1.00
9323;DHT22;4700;48.822;9.270;2022-11-02T05:37:16;10.00;1.00
9323;DHT22;4700;48.822;9.270;2022-11-02T05:40:02;10.00;1.00
9323;DHT22;4700;48.822;9.270;2022-11-02T05:42:49;10.00;1.00
9323;DHT22;4700;48.822;9.270;2022-11-02T05:45:36;10.00;1.00
9323;DHT22;4700;48.822;9.270;2022-11-02T05:48:23;10.00;1.00
9323;DHT22;4700;48.822;9.270;2022-11-02T05:51:10;10.10;1.00
9323;DHT22;4700;48.822;9.270;2022-11-02T05:53:57;10.10;1.00
9323;DHT22;4700;48.822;9.270;2022-11-02T05:56:42;10.10;1.00
9323;DHT22;4700;48.822;9.270;2022-11-02T05:59:28;10.10;1.00
9323;DHT22;4700;48.822;9.270;2022-11-02T06:02:15;10.10;1.00
9323;DHT22;4700;48.822;9.270;2022-11-02T06:05:00;10.20;1.00
9323;DHT22;4700;48.822;9.270;2022-11-02T06:07:46;10.20;1.00
9323;DHT22;4700;48.822;9.270;2022-11-02T06:10:34;10.20;1.00
9323;DHT22;4700;48.822;9.270;2022-11-02T06:13:20;10.20;1.00
9323;DHT22;4700;48.822;9.270;2022-11-02T06:16:08;10.20;1.00
9323;DHT22;4700;48.822;9.270;2022-11-02T06:18:54;10.10;1.00
9323;DHT22;4700;48.822;9.270;2022-11-02T06:21:40;10.30;1.00
9323;DHT22;4700;48.822;9.270;2022-11-02T06:24:26;10.30;1.00
9323;DHT22;4700;48.822;9.270;2022-11-02T06:27:13;10.40;1.00
9323;DHT22;4700;48.822;9.270;2022-11-02T06:29:58;10.50;1.00
9323;DHT22;4700;48.822;9.270;2022-11-02T06:32:46;10.50;1.00
9323;DHT22;4700;48.822;9.270;2022-11-02T06:35:31;10.60;1.00
9323;DHT22;4700;48.822;9.270;2022-11-02T06:38:18;10.60;1.00
9323;DHT22;4700;48.822;9.270;2022-11-02T06:41:04;10.80;1.00
9323;DHT22;4700;48.822;9.270;2022-11-02T06:43:51;10.80;1.00
9323;DHT22;4700;48.822;9.270;2022-11-02T06:46:36;10.90;1.00
9323;DHT22;4700;48.822;9.270;2022-11-02T06:49:22;11.00;1.00
9323;DHT22;4700;48.822;9.270;2022-11-02T06:52:08;11.10;1.00
9323;DHT22;4700;48.822;9.270;2022-11-02T06:54:54;11.30;1.00
9323;DHT22;4700;48.822;9.270;2022-11-02T06:57:40;11.50;1.00
9323;DHT22;4700;48.822;9.270;2022-11-02T07:00:28;11.60;1.00
9323;DHT22;4700;48.822;9.270;2022-11-02T07:03:14;11.80;1.00
9323;DHT22;4700;48.822;9.270;2022-11-02T07:06:00;11.90;1.00
9323;DHT22;4700;48.822;9.270;2022-11-02T07:08:46;11.90;1.00
9323;DHT22;4700;48.822;9.270;2022-11-02T07:11:32;12.50;1.00
9323;DHT22;4700;48.822;9.270;2022-11-02T07:14:17;12.00;1.00
9323;DHT22;4700;48.822;9.270;2022-11-02T07:17:05;12.10;1.00
9323;DHT22;4700;48.822;9.270;2022-11-02T07:19:52;12.10;1.00
9323;DHT22;4700;48.822;9.270;2022-11-02T07:22:38;12.20;1.00
9323;DHT22;4700;48.822;9.270;2022-11-02T07:25:25;12.30;1.00
9323;DHT22;4700;48.822;9.270;2022-11-02T07:28:11;12.50;1.00
9323;DHT22;4700;48.822;9.270;2022-11-02T07:30:57;12.50;1.00
9323;DHT22;4700;48.822;9.270;2022-11-02T07:33:44;12.70;1.00
9323;DHT22;4700;48.822;9.270;2022-11-02T07:36:30;12.90;1.00
9323;DHT22;4700;48.822;9.270;2022-11-02T07:39:15;13.10;1.00
9323;DHT22;4700;48.822;9.270;2022-11-02T07:42:02;13.20;1.00
9323;DHT22;4700;48.822;9.270;2022-11-02T07:44:50;13.30;1.00
9323;DHT22;4700;48.822;9.270;2022-11-02T07:47:41;13.40;1.00
9323;DHT22;4700;48.822;9.270;2022-11-02T07:50:28;13.50;1.00
9323;DHT22;4700;48.822;9.270;2022-11-02T07:53:14;13.60;1.00
9323;DHT22;4700;48.822;9.270;2022-11-02T07:55:59;13.60;1.00
9323;DHT22;4700;48.822;9.270;2022-11-02T07:58:45;13.70;1.00
9323;DHT22;4700;48.822;9.270;2022-11-02T08:01:31;13.70;1.00
9323;DHT22;4700;48.822;9.270;2022-11-02T08:04:17;13.70;1.00
9323;DHT22;4700;48.822;9.270;2022-11-02T08:07:05;14.00;1.00
9323;DHT22;4700;48.822;9.270;2022-11-02T08:09:50;14.10;1.00
9323;DHT22;4700;48.822;9.270;2022-11-02T08:12:36;14.30;1.00
9323;DHT22;4700;48.822;9.270;2022-11-02T08:15:22;14.70;1.00
9323;DHT22;4700;48.822;9.270;2022-11-02T08:18:15;15.10;1.00
9323;DHT22;4700;48.822;9.270;2022-11-02T08:21:01;15.60;1.00
9323;DHT22;4700;48.822;9.270;2022-11-02T08:23:49;16.30;1.00
9323;DHT22;4700;48.822;9.270;2022-11-02T08:26:34;17.10;1.00
9323;DHT22;4700;48.822;9.270;2022-11-02T08:29:25;17.80;1.00
9323;DHT22;4700;48.822;9.270;2022-11-02T08:32:12;18.30;1.00
9323;DHT22;4700;48.822;9.270;2022-11-02T08:34:57;18.30;1.00
9323;DHT22;4700;48.822;9.270;2022-11-02T08:37:43;18.10;1.00
9323;DHT22;4700;48.822;9.270;2022-11-02T08:40:34;18.30;1.00
9323;DHT22;4700;48.822;9.270;2022-11-02T08:43:22;18.70;1.00
9323;DHT22;4700;48.822;9.270;2022-11-02T08:46:10;19.30;1.00
9323;DHT22;4700;48.822;9.270;2022-11-02T08:48:55;19.40;1.00
9323;DHT22;4700;48.822;9.270;2022-11-02T08:51:41;19.10;1.00
9323;DHT22;4700;48.822;9.270;2022-11-02T08:54:27;18.80;1.00
9323;DHT22;4700;48.822;9.270;2022-11-02T08:57:14;18.30;1.00
9323;DHT22;4700;48.822;9.270;2022-11-02T08:59:59;17.90;1.00
9323;DHT22;4700;48.822;9.270;2022-11-02T09:02:57;17.50;1.00
9323;DHT22;4700;48.822;9.270;2022-11-02T09:05:45;17.20;1.00
9323;DHT22;4700;48.822;9.270;2022-11-02T09:08:34;17.00;1.00
9323;DHT22;4700;48.822;9.270;2022-11-02T09:11:23;16.90;1.00
9323;DHT22;4700;48.822;9.270;2022-11-02T09:14:15;17.00;1.00
9323;DHT22;4700;48.822;9.270;2022-11-02T09:17:01;17.00;1.00
9323;DHT22;4700;48.822;9.270;2022-11-02T09:19:46;16.90;1.00
9323;DHT22;4700;48.822;9.270;2022-11-02T09:22:33;16.80;1.00
9323;DHT22;4700;48.822;9.270;2022-11-02T09:25:19;16.80;1.00
9323;DHT22;4700;48.822;9.270;2022-11-02T09:28:05;16.80;1.00
9323;DHT22;4700;48.822;9.270;2022-11-02T09:30:55;16.70;1.00
9323;DHT22;4700;48.822;9.270;2022-11-02T09:33:41;16.80;1.00
9323;DHT22;4700;48.822;9.270;2022-11-02T09:36:26;16.70;1.00
9323;DHT22;4700;48.822;9.270;2022-11-02T09:39:12;16.60;1.00
9323;DHT22;4700;48.822;9.270;2022-11-02T09:42:04;16.70;1.00
9323;DHT22;4700;48.822;9.270;2022-11-02T09:44:56;16.70;1.00
9323;DHT22;4700;48.822;9.270;2022-11-02T09:47:46;16.70;1.00
9323;DHT22;4700;48.822;9.270;2022-11-02T09:50:43;16.60;1.00
9323;DHT22;4700;48.822;9.270;2022-11-02T09:53:41;16.70;1.00
9323;DHT22;4700;48.822;9.270;2022-11-02T09:56:29;16.60;1.00
9323;DHT22;4700;48.822;9.270;2022-11-02T09:59:18;16.60;1.00
9323;DHT22;4700;48.822;9.270;2022-11-02T10:02:11;16.70;1.00
9323;DHT22;4700;48.822;9.270;2022-11-02T10:05:28;16.70;1.00
9323;DHT22;4700;48.822;9.270;2022-11-02T10:08:25;16.80;1.00
9323;DHT22;4700;48.822;9.270;2022-11-02T10:11:22;16.90;1.00
9323;DHT22;4700;48.822;9.270;2022-11-02T10:14:13;17.00;1.00
9323;DHT22;4700;48.822;9.270;2022-11-02T10:17:03;16.90;1.00
9323;DHT22;4700;48.822;9.270;2022-11-02T10:19:56;16.90;1.00
9323;DHT22;4700;48.822;9.270;2022-11-02T10:22:45;17.00;1.00
9323;DHT22;4700;48.822;9.270;2022-11-02T10:25:32;17.10;1.00
9323;DHT22;4700;48.822;9.270;2022-11-02T10:28:22;17.20;1.00
9323;DHT22;4700;48.822;9.270;2022-11-02T10:31:21;17.20;1.00
9323;DHT22;4700;48.822;9.270;2022-11-02T10:34:18;16.90;1.00
9323;DHT22;4700;48.822;9.270;2022-11-02T10:37:25;16.60;1.00
9323;DHT22;4700;48.822;9.270;2022-11-02T10:40:37;16.80;1.00
9323;DHT22;4700;48.822;9.270;2022-11-02T10:43:37;17.00;1.00
9323;DHT22;4700;48.822;9.270;2022-11-02T10:46:37;17.20;1.00
9323;DHT22;4700;48.822;9.270;2022-11-02T10:49:53;17.10;1.00
9323;DHT22;4700;48.822;9.270;2022-11-02T10:52:43;17.10;1.00
9323;DHT22;4700;48.822;9.270;2022-11-02T10:55:35;17.10;1.00
9323;DHT22;4700;48.822;9.270;2022-11-02T10:58:26;16.90;1.00
9323;DHT22;4700;48.822;9.270;2022-11-02T11:01:13;16.90;1.00
9323;DHT22;4700;48.822;9.270;2022-11-02T11:03:59;16.70;1.00
9323;DHT22;4700;48.822;9.270;2022-11-02T11:06:46;16.60;1.00
9323;DHT22;4700;48.822;9.270;2022-11-02T11:09:36;16.50;1.00
9323;DHT22;4700;48.822;9.270;2022-11-02T11:12:30;16.40;1.00
9323;DHT22;4700;48.822;9.270;2022-11-02T11:15:21;16.40;1.00
9323;DHT22;4700;48.822;9.270;2022-11-02T11:18:12;16.30;1.00
9323;DHT22;4700;48.822;9.270;2022-11-02T11:20:59;16.30;1.00
9323;DHT22;4700;48.822;9.270;2022-11-02T11:23:45;16.30;1.00
9323;DHT22;4700;48.822;9.270;2022-11-02T11:26:33;16.30;1.00
9323;DHT22;4700;48.822;9.270;2022-11-02T11:29:22;16.10;1.00
9323;DHT22;4700;48.822;9.270;2022-11-02T11:32:14;16.00;1.00
9323;DHT22;4700;48.822;9.270;2022-11-02T11:35:03;15.80;1.00
9323;DHT22;4700;48.822;9.270;2022-11-02T11:37:53;15.70;1.00
9323;DHT22;4700;48.822;9.270;2022-11-02T11:40:44;15.60;1.00
9323;DHT22;4700;48.822;9.270;2022-11-02T11:43:33;15.50;1.00
9323;DHT22;4700;48.822;9.270;2022-11-02T11:46:28;15.40;1.00
9323;DHT22;4700;48.822;9.270;2022-11-02T11:49:25;15.40;1.00
9323;DHT22;4700;48.822;9.270;2022-11-02T11:52:17;15.30;1.00
9323;DHT22;4700;48.822;9.270;2022-11-02T11:55:20;15.30;1.00
9323;DHT22;4700;48.822;9.270;2022-11-02T11:58:11;15.30;1.00
9323;DHT22;4700;48.822;9.270;2022-11-02T12:01:04;15.10;1.00
9323;DHT22;4700;48.822;9.270;2022-11-02T12:03:53;15.10;1.00
9323;DHT22;4700;48.822;9.270;2022-11-02T12:06:44;15.10;1.00
9323;DHT22;4700;48.822;9.270;2022-11-02T12:09:37;15.10;1.00
9323;DHT22;4700;48.822;9.270;2022-11-02T12:12:35;15.20;1.00
9323;DHT22;4700;48.822;9.270;2022-11-02T12:15:34;15.40;1.00
9323;DHT22;4700;48.822;9.270;2022-11-02T12:21:52;15.80;1.00
9323;DHT22;4700;48.822;9.270;2022-11-02T12:24:59;16.00;1.00
9323;DHT22;4700;48.822;9.270;2022-11-02T12:27:53;16.10;1.00
9323;DHT22;4700;48.822;9.270;2022-11-02T12:30:52;16.40;1.00
9323;DHT22;4700;48.822;9.270;2022-11-02T12:33:50;16.60;1.00
9323;DHT22;4700;48.822;9.270;2022-11-02T12:36:51;16.80;1.00
9323;DHT22;4700;48.822;9.270;2022-11-02T12:39:49;16.80;1.00
9323;DHT22;4700;48.822;9.270;2022-11-02T12:42:42;16.70;1.00
9323;DHT22;4700;48.822;9.270;2022-11-02T12:45:41;16.50;1.00
9323;DHT22;4700;48.822;9.270;2022-11-02T12:48:41;16.10;1.00
9323;DHT22;4700;48.822;9.270;2022-11-02T12:51:33;15.90;1.00
9323;DHT22;4700;48.822;9.270;2022-11-02T12:54:29;15.70;1.00
9323;DHT22;4700;48.822;9.270;2022-11-02T12:57:20;15.50;1.00
9323;DHT22;4700;48.822;9.270;2022-11-02T13:00:14;15.50;1.00
9323;DHT22;4700;48.822;9.270;2022-11-02T13:03:05;15.50;1.00
9323;DHT22;4700;48.822;9.270;2022-11-02T13:05:55;15.50;1.00
9323;DHT22;4700;48.822;9.270;2022-11-02T13:08:48;15.50;1.00
9323;DHT22;4700;48.822;9.270;2022-11-02T13:11:39;15.50;1.00
9323;DHT22;4700;48.822;9.270;2022-11-02T13:14:30;15.40;1.00
9323;DHT22;4700;48.822;9.270;2022-11-02T13:17:21;15.40;1.00
9323;DHT22;4700;48.822;9.270;2022-11-02T13:20:14;15.40;1.00
9323;DHT22;4700;48.822;9.270;2022-11-02T13:23:04;15.30;1.00
9323;DHT22;4700;48.822;9.270;2022-11-02T13:25:54;15.30;1.00
9323;DHT22;4700;48.822;9.270;2022-11-02T13:28:46;15.30;1.00
9323;DHT22;4700;48.822;9.270;2022-11-02T13:31:36;15.30;1.00
9323;DHT22;4700;48.822;9.270;2022-11-02T13:34:30;15.20;1.00
9323;DHT22;4700;48.822;9.270;2022-11-02T13:37:22;15.30;1.00
9323;DHT22;4700;48.822;9.270;2022-11-02T13:40:15;15.30;1.00
9323;DHT22;4700;48.822;9.270;2022-11-02T13:43:15;15.30;1.00
9323;DHT22;4700;48.822;9.270;2022-11-02T13:49:17;15.30;1.00
9323;DHT22;4700;48.822;9.270;2022-11-02T13:52:12;15.20;1.00
9323;DHT22;4700;48.822;9.270;2022-11-02T13:55:00;15.10;1.00
9323;DHT22;4700;48.822;9.270;2022-11-02T13:57:48;15.00;1.00
9323;DHT22;4700;48.822;9.270;2022-11-02T14:00:43;15.00;1.00
9323;DHT22;4700;48.822;9.270;2022-11-02T14:03:33;15.00;1.00
9323;DHT22;4700;48.822;9.270;2022-11-02T14:06:30;14.90;1.00
9323;DHT22;4700;48.822;9.270;2022-11-02T14:09:26;14.90;1.00
9323;DHT22;4700;48.822;9.270;2022-11-02T14:12:26;14.80;1.00
9323;DHT22;4700;48.822;9.270;2022-11-02T14:15:51;14.80;1.00
9323;DHT22;4700;48.822;9.270;2022-11-02T14:18:38;14.70;1.00
9323;DHT22;4700;48.822;9.270;2022-11-02T14:21:41;14.70;1.00
9323;DHT22;4700;48.822;9.270;2022-11-02T14:28:29;14.60;1.00
9323;DHT22;4700;48.822;9.270;2022-11-02T14:31:42;14.60;1.00
9323;DHT22;4700;48.822;9.270;2022-11-02T14:34:53;14.60;1.00
9323;DHT22;4700;48.822;9.270;2022-11-02T14:37:54;14.50;1.00
9323;DHT22;4700;48.822;9.270;2022-11-02T14:40:51;14.50;1.00
9323;DHT22;4700;48.822;9.270;2022-11-02T14:47:04;14.30;1.00
9323;DHT22;4700;48.822;9.270;2022-11-02T14:49:54;14.30;1.00
9323;DHT22;4700;48.822;9.270;2022-11-02T14:52:51;14.30;1.00
9323;DHT22;4700;48.822;9.270;2022-11-02T14:55:38;14.20;1.00
9323;DHT22;4700;48.822;9.270;2022-11-02T14:58:28;14.20;1.00
9323;DHT22;4700;48.822;9.270;2022-11-02T15:01:17;14.10;1.00
9323;DHT22;4700;48.822;9.270;2022-11-02T15:04:06;14.00;1.00
9323;DHT22;4700;48.822;9.270;2022-11-02T15:06:55;14.00;1.00
9323;DHT22;4700;48.822;9.270;2022-11-02T15:09:54;13.90;1.00
9323;DHT22;4700;48.822;9.270;2022-11-02T15:12:44;13.80;1.00
9323;DHT22;4700;48.822;9.270;2022-11-02T15:15:31;13.70;1.00
9323;DHT22;4700;48.822;9.270;2022-11-02T15:18:23;13.60;1.00
9323;DHT22;4700;48.822;9.270;2022-11-02T15:21:28;13.50;1.00
9323;DHT22;4700;48.822;9.270;2022-11-02T15:24:18;13.40;1.00
9323;DHT22;4700;48.822;9.270;2022-11-02T15:27:06;13.30;1.00
9323;DHT22;4700;48.822;9.270;2022-11-02T15:29:52;13.30;1.00
9323;DHT22;4700;48.822;9.270;2022-11-02T15:32:40;13.20;1.00
9323;DHT22;4700;48.822;9.270;2022-11-02T15:35:30;13.10;1.00
9323;DHT22;4700;48.822;9.270;2022-11-02T15:38:21;13.10;1.00
9323;DHT22;4700;48.822;9.270;2022-11-02T15:41:27;13.00;1.00
9323;DHT22;4700;48.822;9.270;2022-11-02T15:44:31;12.90;1.00
9323;DHT22;4700;48.822;9.270;2022-11-02T15:47:30;12.90;1.00
9323;DHT22;4700;48.822;9.270;2022-11-02T15:50:34;12.80;1.00
9323;DHT22;4700;48.822;9.270;2022-11-02T15:53:46;12.60;1.00
9323;DHT22;4700;48.822;9.270;2022-11-02T15:56:49;12.50;1.00
9323;DHT22;4700;48.822;9.270;2022-11-02T16:00:11;12.40;1.00
9323;DHT22;4700;48.822;9.270;2022-11-02T16:03:00;12.30;1.00
9323;DHT22;4700;48.822;9.270;2022-11-02T16:05:47;12.20;1.00
9323;DHT22;4700;48.822;9.270;2022-11-02T16:08:34;12.10;1.00
9323;DHT22;4700;48.822;9.270;2022-11-02T16:11:21;12.10;1.00
9323;DHT22;4700;48.822;9.270;2022-11-02T16:14:16;12.00;1.00
9323;DHT22;4700;48.822;9.270;2022-11-02T16:17:02;11.90;1.00
9323;DHT22;4700;48.822;9.270;2022-11-02T16:19:47;11.90;1.00
9323;DHT22;4700;48.822;9.270;2022-11-02T16:22:33;12.00;1.00
9323;DHT22;4700;48.822;9.270;2022-11-02T16:25:27;11.90;1.00
9323;DHT22;4700;48.822;9.270;2022-11-02T16:28:17;11.80;1.00
9323;DHT22;4700;48.822;9.270;2022-11-02T16:33:42;11.60;1.00
9323;DHT22;4700;48.822;9.270;2022-11-02T16:36:29;11.60;1.00
9323;DHT22;4700;48.822;9.270;2022-11-02T16:39:21;11.60;1.00
9323;DHT22;4700;48.822;9.270;2022-11-02T16:42:15;11.60;1.00
9323;DHT22;4700;48.822;9.270;2022-11-02T16:45:01;11.40;1.00
9323;DHT22;4700;48.822;9.270;2022-11-02T16:47:48;11.30;1.00
9323;DHT22;4700;48.822;9.270;2022-11-02T16:50:35;11.30;1.00
9323;DHT22;4700;48.822;9.270;2022-11-02T16:53:27;11.20;1.00
9323;DHT22;4700;48.822;9.270;2022-11-02T16:56:23;11.40;1.00
9323;DHT22;4700;48.822;9.270;2022-11-02T16:59:13;11.30;1.00
9323;DHT22;4700;48.822;9.270;2022-11-02T17:02:00;11.20;1.00
9323;DHT22;4700;48.822;9.270;2022-11-02T17:04:47;11.10;1.00
9323;DHT22;4700;48.822;9.270;2022-11-02T17:07:37;11.00;1.00
9323;DHT22;4700;48.822;9.270;2022-11-02T17:10:25;10.90;1.00
9323;DHT22;4700;48.822;9.270;2022-11-02T17:13:14;10.90;1.00
9323;DHT22;4700;48.822;9.270;2022-11-02T17:16:04;10.80;1.00
9323;DHT22;4700;48.822;9.270;2022-11-02T17:18:50;10.70;1.00
9323;DHT22;4700;48.822;9.270;2022-11-02T17:21:36;10.50;1.00
9323;DHT22;4700;48.822;9.270;2022-11-02T17:24:31;10.40;1.00
9323;DHT22;4700;48.822;9.270;2022-11-02T17:27:23;10.50;1.00
9323;DHT22;4700;48.822;9.270;2022-11-02T17:30:40;10.50;1.00
9323;DHT22;4700;48.822;9.270;2022-11-02T17:33:28;10.40;1.00
9323;DHT22;4700;48.822;9.270;2022-11-02T17:36:15;10.50;1.00
9323;DHT22;4700;48.822;9.270;2022-11-02T17:39:01;10.50;1.00
9323;DHT22;4700;48.822;9.270;2022-11-02T17:41:52;10.50;1.00
9323;DHT22;4700;48.822;9.270;2022-11-02T17:44:56;10.50;1.00
9323;DHT22;4700;48.822;9.270;2022-11-02T17:47:51;10.40;1.00
9323;DHT22;4700;48.822;9.270;2022-11-02T17:50:38;10.40;1.00
9323;DHT22;4700;48.822;9.270;2022-11-02T17:53:25;10.30;1.00
9323;DHT22;4700;48.822;9.270;2022-11-02T17:56:11;10.20;1.00
9323;DHT22;4700;48.822;9.270;2022-11-02T17:58:59;10.10;1.00
9323;DHT22;4700;48.822;9.270;2022-11-02T18:01:45;10.00;1.00
9323;DHT22;4700;48.822;9.270;2022-11-02T18:04:30;9.90;1.00
9323;DHT22;4700;48.822;9.270;2022-11-02T18:07:16;9.80;1.00
9323;DHT22;4700;48.822;9.270;2022-11-02T18:10:02;9.70;1.00
9323;DHT22;4700;48.822;9.270;2022-11-02T18:12:48;9.70;1.00
9323;DHT22;4700;48.822;9.270;2022-11-02T18:15:37;9.60;1.00
9323;DHT22;4700;48.822;9.270;2022-11-02T18:18:23;9.60;1.00
9323;DHT22;4700;48.822;9.270;2022-11-02T18:21:10;9.50;1.00
9323;DHT22;4700;48.822;9.270;2022-11-02T18:23:56;9.40;1.00
9323;DHT22;4700;48.822;9.270;2022-11-02T18:26:42;9.40;1.00
9323;DHT22;4700;48.822;9.270;2022-11-02T18:29:28;9.30;1.00
9323;DHT22;4700;48.822;9.270;2022-11-02T18:32:15;9.20;1.00
9323;DHT22;4700;48.822;9.270;2022-11-02T18:35:02;9.20;1.00
9323;DHT22;4700;48.822;9.270;2022-11-02T18:37:49;9.20;1.00
9323;DHT22;4700;48.822;9.270;2022-11-02T18:40:35;9.10;1.00
9323;DHT22;4700;48.822;9.270;2022-11-02T18:43:21;9.00;1.00
9323;DHT22;4700;48.822;9.270;2022-11-02T18:46:09;9.00;1.00
9323;DHT22;4700;48.822;9.270;2022-11-02T18:51:31;8.90;1.00
9323;DHT22;4700;48.822;9.270;2022-11-02T18:54:18;8.90;1.00
9323;DHT22;4700;48.822;9.270;2022-11-02T18:57:04;8.90;1.00
9323;DHT22;4700;48.822;9.270;2022-11-02T18:59:50;8.80;1.00
9323;DHT22;4700;48.822;9.270;2022-11-02T19:02:37;8.80;1.00
9323;DHT22;4700;48.822;9.270;2022-11-02T19:05:27;8.80;1.00
9323;DHT22;4700;48.822;9.270;2022-11-02T19:08:33;8.80;1.00
9323;DHT22;4700;48.822;9.270;2022-11-02T19:11:37;8.70;1.00